createdAt,value
2022-09-28T00:00:00.354Z,7.40
2022-09-28T00:01:08.460Z,7.40
2022-09-28T00:02:00.497Z,7.40
2022-09-28T00:03:00.393Z,7.40
2022-09-28T00:04:00.550Z,7.40
2022-09-28T00:05:00.882Z,7.40
2022-09-28T00:06:01.159Z,7.40
2022-09-28T00:07:00.276Z,7.40
2022-09-28T00:08:00.408Z,7.40
2022-09-28T00:09:00.265Z,7.40
2022-09-28T00:10:00.274Z,7.40
2022-09-28T00:11:00.921Z,7.40
2022-09-28T00:12:00.407Z,7.40
2022-09-28T00:13:00.347Z,7.40
2022-09-28T00:14:00.983Z,7.40
2022-09-28T00:15:00.336Z,7.40
2022-09-28T00:16:00.503Z,7.40
2022-09-28T00:17:00.277Z,7.40
2022-09-28T00:18:00.316Z,5.50
2022-09-28T00:19:00.908Z,5.50
2022-09-28T00:20:00.389Z,5.50
2022-09-28T00:21:04.985Z,5.50
2022-09-28T00:22:00.266Z,5.50
2022-09-28T00:23:00.271Z,5.50
2022-09-28T00:24:01.647Z,5.50
2022-09-28T00:25:00.304Z,5.50
2022-09-28T00:26:01.004Z,5.50
2022-09-28T00:27:00.311Z,5.50
2022-09-28T00:28:00.351Z,5.50
2022-09-28T00:29:01.085Z,5.50
2022-09-28T00:30:00.326Z,5.50
2022-09-28T00:31:00.260Z,5.50
2022-09-28T00:32:02.283Z,5.50
2022-09-28T00:33:00.262Z,5.50
2022-09-28T00:34:00.884Z,5.50
2022-09-28T00:35:00.273Z,5.50
2022-09-28T00:36:00.413Z,5.50
2022-09-28T00:37:00.875Z,5.50
2022-09-28T00:38:00.284Z,5.50
2022-09-28T00:39:05.188Z,5.50
2022-09-28T00:40:00.461Z,5.50
2022-09-28T00:41:00.493Z,5.50
2022-09-28T00:42:01.233Z,5.50
2022-09-28T00:43:10.175Z,5.50
2022-09-28T00:44:10.172Z,5.50
2022-09-28T00:45:00.308Z,5.50
2022-09-28T00:46:03.221Z,5.50
2022-09-28T00:47:01.263Z,5.50
2022-09-28T00:48:00.281Z,8.20
2022-09-28T00:49:03.374Z,8.20
2022-09-28T00:50:01.808Z,8.20
2022-09-28T00:51:03.502Z,8.20
2022-09-28T00:52:02.657Z,8.20
2022-09-28T00:53:03.439Z,8.20
2022-09-28T00:54:02.654Z,8.20
2022-09-28T00:55:02.517Z,8.20
2022-09-28T00:56:02.646Z,8.20
2022-09-28T00:57:01.906Z,8.20
2022-09-28T00:58:02.609Z,8.20
2022-09-28T00:59:00.503Z,8.20
2022-09-28T01:00:00.747Z,8.20
2022-09-28T01:01:00.510Z,8.20
2022-09-28T01:02:00.729Z,8.20
2022-09-28T01:03:00.363Z,8.20
2022-09-28T01:04:00.467Z,8.20
2022-09-28T01:05:01.509Z,8.20
2022-09-28T01:06:01.835Z,8.20
2022-09-28T01:07:00.354Z,8.20
2022-09-28T01:08:00.961Z,8.20
2022-09-28T01:09:03.234Z,8.20
2022-09-28T01:10:00.467Z,8.20
2022-09-28T01:11:01.000Z,8.20
2022-09-28T01:12:00.431Z,8.20
2022-09-28T01:13:00.274Z,8.20
2022-09-28T01:14:00.396Z,8.20
2022-09-28T01:15:00.451Z,8.20
2022-09-28T01:16:10.214Z,8.20
2022-09-28T01:17:05.911Z,8.20
2022-09-28T01:18:07.745Z,5.30
2022-09-28T01:19:10.261Z,5.30
2022-09-28T01:20:01.284Z,5.30
2022-09-28T01:21:04.826Z,5.30
2022-09-28T01:22:10.186Z,5.30
2022-09-28T01:23:07.784Z,5.30
2022-09-28T01:24:10.175Z,5.30
2022-09-28T01:25:09.858Z,5.30
2022-09-28T01:26:10.182Z,5.30
2022-09-28T01:27:10.179Z,5.30
2022-09-28T01:28:06.989Z,5.30
2022-09-28T01:29:05.180Z,5.30
2022-09-28T01:30:00.247Z,5.30
2022-09-28T01:31:01.308Z,5.30
2022-09-28T01:32:10.110Z,5.30
2022-09-28T01:33:04.848Z,5.30
2022-09-28T01:34:04.837Z,5.30
2022-09-28T01:35:10.170Z,5.30
2022-09-28T01:36:03.667Z,5.30
2022-09-28T01:37:03.275Z,5.30
2022-09-28T01:38:03.712Z,5.30
2022-09-28T01:39:04.101Z,5.30
2022-09-28T01:40:01.085Z,5.30
2022-09-28T01:41:00.690Z,5.30
2022-09-28T01:42:03.863Z,5.30
2022-09-28T01:43:03.080Z,5.30
2022-09-28T01:44:01.674Z,5.30
2022-09-28T01:45:03.821Z,5.30
2022-09-28T01:46:06.970Z,5.30
2022-09-28T01:47:00.834Z,5.30
2022-09-28T01:48:02.392Z,5.90
2022-09-28T01:49:05.001Z,5.90
2022-09-28T01:50:05.126Z,5.90
2022-09-28T01:51:02.579Z,5.90
2022-09-28T01:52:03.742Z,5.90
2022-09-28T01:53:04.897Z,5.90
2022-09-28T01:54:05.690Z,5.90
2022-09-28T01:55:05.107Z,5.90
2022-09-28T01:56:06.824Z,5.90
2022-09-28T01:57:06.774Z,5.90
2022-09-28T01:58:09.030Z,5.90
2022-09-28T01:59:10.219Z,5.90
2022-09-28T02:00:03.949Z,5.90
2022-09-28T02:01:02.596Z,5.90
2022-09-28T02:02:04.885Z,5.90
2022-09-28T02:03:06.323Z,5.90
2022-09-28T02:04:04.306Z,5.90
2022-09-28T02:05:06.719Z,5.90
2022-09-28T02:06:04.852Z,5.90
2022-09-28T02:07:06.385Z,5.90
2022-09-28T02:08:05.625Z,5.90
2022-09-28T02:09:04.844Z,5.90
2022-09-28T02:10:04.430Z,5.90
2022-09-28T02:11:07.436Z,5.90
2022-09-28T02:12:04.571Z,5.90
2022-09-28T02:13:03.321Z,5.90
2022-09-28T02:14:03.280Z,5.90
2022-09-28T02:15:09.601Z,5.90
2022-09-28T02:16:01.360Z,5.90
2022-09-28T02:17:00.363Z,5.90
2022-09-28T02:18:00.293Z,5.90
2022-09-28T02:19:00.519Z,4.80
2022-09-28T02:20:00.361Z,4.80
2022-09-28T02:21:05.915Z,4.80
2022-09-28T02:22:10.191Z,4.80
2022-09-28T02:23:01.010Z,4.80
2022-09-28T02:24:07.314Z,4.80
2022-09-28T02:25:04.650Z,4.80
2022-09-28T02:26:03.966Z,4.80
2022-09-28T02:27:02.959Z,4.80
2022-09-28T02:28:03.109Z,4.80
2022-09-28T02:29:00.337Z,4.80
2022-09-28T02:30:01.119Z,4.80
2022-09-28T02:31:00.431Z,4.80
2022-09-28T02:32:00.388Z,4.80
2022-09-28T02:33:04.505Z,4.80
2022-09-28T02:34:00.330Z,4.80
2022-09-28T02:35:00.476Z,4.80
2022-09-28T02:36:00.445Z,4.80
2022-09-28T02:37:00.871Z,4.80
2022-09-28T02:38:00.577Z,4.80
2022-09-28T02:39:00.389Z,4.80
2022-09-28T02:40:00.814Z,4.80
2022-09-28T02:41:07.343Z,4.80
2022-09-28T02:42:10.182Z,4.80
2022-09-28T02:43:08.179Z,4.80
2022-09-28T02:44:07.697Z,4.80
2022-09-28T02:45:10.191Z,4.80
2022-09-28T02:46:01.329Z,4.80
2022-09-28T02:47:06.058Z,4.80
2022-09-28T02:48:07.809Z,3.60
2022-09-28T02:49:21.364Z,3.60
2022-09-28T02:50:00.241Z,3.60
2022-09-28T02:51:07.809Z,3.60
2022-09-28T02:52:07.692Z,3.60
2022-09-28T02:53:01.276Z,3.60
2022-09-28T02:54:10.182Z,3.60
2022-09-28T02:55:00.270Z,3.60
2022-09-28T02:56:07.887Z,3.60
2022-09-28T02:57:03.591Z,3.60
2022-09-28T02:58:10.174Z,3.60
2022-09-28T02:59:00.247Z,3.60
2022-09-28T03:00:03.651Z,3.60
2022-09-28T03:01:06.855Z,3.60
2022-09-28T03:02:07.870Z,3.60
2022-09-28T03:03:01.280Z,3.60
2022-09-28T03:04:05.822Z,3.60
2022-09-28T03:05:05.137Z,3.60
2022-09-28T03:06:04.614Z,3.60
2022-09-28T03:07:04.502Z,3.60
2022-09-28T03:08:02.689Z,3.60
2022-09-28T03:09:04.763Z,3.60
2022-09-28T03:10:10.208Z,3.60
2022-09-28T03:11:07.492Z,3.60
2022-09-28T03:12:03.863Z,3.60
2022-09-28T03:13:00.929Z,3.60
2022-09-28T03:14:00.972Z,3.60
2022-09-28T03:15:09.525Z,3.60
2022-09-28T03:16:10.297Z,3.60
2022-09-28T03:17:00.383Z,3.60
2022-09-28T03:18:00.303Z,3.60
2022-09-28T03:19:00.282Z,3.80
2022-09-28T03:20:00.472Z,3.80
2022-09-28T03:21:00.666Z,3.80
2022-09-28T03:22:00.268Z,3.80
2022-09-28T03:23:23.355Z,3.80
2022-09-28T03:24:00.350Z,3.80
2022-09-28T03:25:00.357Z,3.80
2022-09-28T03:26:00.334Z,3.80
2022-09-28T03:27:00.259Z,3.80
2022-09-28T03:28:00.461Z,3.80
2022-09-28T03:29:00.352Z,3.80
2022-09-28T03:30:00.310Z,3.80
2022-09-28T03:31:00.263Z,3.80
2022-09-28T03:32:00.496Z,3.80
2022-09-28T03:33:00.286Z,3.80
2022-09-28T03:34:00.280Z,3.80
2022-09-28T03:35:00.283Z,3.80
2022-09-28T03:36:00.400Z,3.80
2022-09-28T03:37:00.265Z,3.80
2022-09-28T03:38:00.265Z,3.80
2022-09-28T03:39:00.482Z,3.80
2022-09-28T03:40:00.416Z,3.80
2022-09-28T03:41:00.538Z,3.80
2022-09-28T03:42:00.274Z,3.80
2022-09-28T03:43:00.419Z,3.80
2022-09-28T03:44:00.349Z,3.80
2022-09-28T03:45:00.299Z,3.80
2022-09-28T03:46:00.989Z,3.80
2022-09-28T03:47:00.361Z,3.80
2022-09-28T03:48:00.406Z,3.80
2022-09-28T03:49:00.285Z,3.50
2022-09-28T03:50:00.317Z,3.50
2022-09-28T03:51:02.695Z,3.50
2022-09-28T03:52:00.402Z,3.50
2022-09-28T03:53:01.897Z,3.50
2022-09-28T03:54:00.360Z,3.50
2022-09-28T03:55:00.282Z,3.50
2022-09-28T03:56:02.655Z,3.50
2022-09-28T03:57:00.277Z,3.50
2022-09-28T03:58:00.274Z,3.50
2022-09-28T03:59:02.248Z,3.50
2022-09-28T04:00:00.609Z,3.50
2022-09-28T04:01:01.110Z,3.50
2022-09-28T04:02:00.317Z,3.50
2022-09-28T04:03:00.281Z,3.50
2022-09-28T04:04:00.394Z,3.50
2022-09-28T04:05:00.576Z,3.50
2022-09-28T04:06:00.271Z,3.50
2022-09-28T04:07:00.263Z,3.50
2022-09-28T04:08:00.358Z,3.50
2022-09-28T04:09:00.274Z,3.50
2022-09-28T04:10:00.285Z,3.50
2022-09-28T04:11:00.600Z,3.50
2022-09-28T04:12:04.215Z,3.50
2022-09-28T04:13:00.278Z,3.50
2022-09-28T04:14:00.435Z,3.50
2022-09-28T04:15:00.298Z,3.50
2022-09-28T04:16:00.558Z,3.50
2022-09-28T04:17:00.252Z,3.50
2022-09-28T04:18:00.257Z,3.50
2022-09-28T04:19:00.269Z,5.70
2022-09-28T04:20:00.439Z,5.70
2022-09-28T04:21:01.138Z,5.70
2022-09-28T04:22:00.624Z,5.70
2022-09-28T04:23:00.267Z,5.70
2022-09-28T04:24:00.347Z,5.70
2022-09-28T04:25:00.269Z,5.70
2022-09-28T04:26:00.852Z,5.70
2022-09-28T04:27:00.253Z,5.70
2022-09-28T04:28:00.368Z,5.70
2022-09-28T04:29:05.475Z,5.70
2022-09-28T04:30:00.266Z,5.70
2022-09-28T04:31:00.295Z,5.70
2022-09-28T04:32:00.367Z,5.70
2022-09-28T04:33:00.282Z,5.70
2022-09-28T04:34:00.294Z,5.70
2022-09-28T04:35:00.266Z,5.70
2022-09-28T04:36:00.400Z,5.70
2022-09-28T04:37:00.305Z,5.70
2022-09-28T04:38:00.277Z,5.70
2022-09-28T04:39:00.312Z,5.70
2022-09-28T04:40:00.400Z,5.70
2022-09-28T04:41:00.341Z,5.70
2022-09-28T04:42:00.283Z,5.70
2022-09-28T04:43:00.296Z,5.70
2022-09-28T04:44:00.473Z,5.70
2022-09-28T04:45:00.294Z,5.70
2022-09-28T04:46:00.886Z,5.70
2022-09-28T04:47:04.355Z,5.70
2022-09-28T04:48:00.453Z,5.70
2022-09-28T04:49:00.594Z,2.30
2022-09-28T04:50:00.268Z,2.30
2022-09-28T04:51:00.288Z,2.30
2022-09-28T04:52:00.436Z,2.30
2022-09-28T04:53:00.335Z,2.30
2022-09-28T04:54:00.310Z,2.30
2022-09-28T04:55:00.284Z,2.30
2022-09-28T04:56:01.728Z,2.30
2022-09-28T04:57:00.282Z,2.30
2022-09-28T04:58:00.350Z,2.30
2022-09-28T04:59:00.267Z,2.30
2022-09-28T05:00:00.425Z,2.30
2022-09-28T05:01:01.417Z,2.30
2022-09-28T05:02:00.284Z,2.30
2022-09-28T05:03:00.680Z,2.30
2022-09-28T05:04:00.400Z,2.30
2022-09-28T05:05:00.275Z,2.30
2022-09-28T05:06:00.287Z,2.30
2022-09-28T05:07:00.348Z,2.30
2022-09-28T05:08:00.371Z,2.30
2022-09-28T05:09:00.280Z,2.30
2022-09-28T05:10:00.289Z,2.30
2022-09-28T05:11:01.394Z,2.30
2022-09-28T05:12:00.367Z,2.30
2022-09-28T05:13:00.896Z,2.30
2022-09-28T05:14:00.284Z,2.30
2022-09-28T05:15:00.282Z,2.30
2022-09-28T05:16:04.351Z,2.30
2022-09-28T05:17:00.340Z,2.30
2022-09-28T05:18:00.526Z,2.30
2022-09-28T05:19:00.316Z,4.40
2022-09-28T05:20:00.415Z,4.40
2022-09-28T05:21:00.421Z,4.40
2022-09-28T05:22:00.682Z,4.40
2022-09-28T05:23:00.263Z,4.40
2022-09-28T05:24:00.400Z,4.40
2022-09-28T05:25:00.310Z,4.40
2022-09-28T05:26:01.182Z,4.40
2022-09-28T05:27:00.285Z,4.40
2022-09-28T05:28:00.395Z,4.40
2022-09-28T05:29:00.279Z,4.40
2022-09-28T05:30:00.277Z,4.40
2022-09-28T05:31:01.090Z,4.40
2022-09-28T05:32:00.338Z,4.40
2022-09-28T05:33:00.755Z,4.40
2022-09-28T05:34:00.283Z,4.40
2022-09-28T05:35:00.285Z,4.40
2022-09-28T05:36:01.486Z,4.40
2022-09-28T05:37:00.261Z,4.40
2022-09-28T05:38:02.377Z,4.40
2022-09-28T05:39:00.293Z,4.40
2022-09-28T05:40:00.403Z,4.40
2022-09-28T05:41:04.411Z,4.40
2022-09-28T05:42:00.316Z,4.40
2022-09-28T05:43:01.790Z,4.40
2022-09-28T05:44:00.447Z,4.40
2022-09-28T05:45:00.322Z,4.40
2022-09-28T05:46:00.399Z,4.40
2022-09-28T05:47:00.276Z,4.40
2022-09-28T05:48:00.373Z,4.40
2022-09-28T05:49:00.268Z,5.80
2022-09-28T05:50:00.271Z,5.80
2022-09-28T05:51:00.268Z,5.80
2022-09-28T05:52:00.396Z,5.80
2022-09-28T05:53:01.735Z,5.80
2022-09-28T05:54:05.431Z,5.80
2022-09-28T05:55:00.371Z,5.80
2022-09-28T05:56:00.693Z,5.80
2022-09-28T05:57:00.273Z,5.80
2022-09-28T05:58:01.097Z,5.80
2022-09-28T05:59:00.293Z,5.80
2022-09-28T06:00:00.435Z,5.80
2022-09-28T06:01:00.367Z,5.80
2022-09-28T06:02:00.826Z,5.80
2022-09-28T06:03:08.685Z,5.80
2022-09-28T06:04:00.428Z,5.80
2022-09-28T06:05:00.420Z,5.80
2022-09-28T06:06:00.284Z,5.80
2022-09-28T06:07:00.276Z,5.80
2022-09-28T06:08:00.481Z,5.80
2022-09-28T06:09:00.259Z,5.80
2022-09-28T06:10:00.352Z,5.80
2022-09-28T06:11:01.139Z,5.80
2022-09-28T06:12:00.354Z,5.80
2022-09-28T06:13:00.859Z,5.80
2022-09-28T06:14:00.328Z,5.80
2022-09-28T06:15:00.344Z,5.80
2022-09-28T06:16:00.275Z,5.80
2022-09-28T06:17:00.348Z,5.80
2022-09-28T06:18:01.559Z,5.80
2022-09-28T06:19:00.581Z,8.70
2022-09-28T06:20:00.359Z,8.70
2022-09-28T06:21:00.344Z,8.70
2022-09-28T06:22:00.261Z,8.70
2022-09-28T06:23:00.269Z,8.70
2022-09-28T06:24:00.773Z,8.70
2022-09-28T06:25:00.308Z,8.70
2022-09-28T06:26:00.291Z,8.70
2022-09-28T06:27:00.327Z,8.70
2022-09-28T06:28:01.805Z,8.70
2022-09-28T06:29:00.268Z,8.70
2022-09-28T06:30:00.307Z,8.70
2022-09-28T06:31:00.428Z,8.70
2022-09-28T06:32:00.562Z,8.70
2022-09-28T06:33:00.904Z,8.70
2022-09-28T06:34:00.315Z,8.70
2022-09-28T06:35:00.278Z,8.70
2022-09-28T06:36:00.534Z,8.70
2022-09-28T06:37:00.262Z,8.70
2022-09-28T06:38:00.761Z,8.70
2022-09-28T06:39:00.269Z,8.70
2022-09-28T06:40:00.429Z,8.70
2022-09-28T06:41:00.321Z,8.70
2022-09-28T06:42:00.295Z,8.70
2022-09-28T06:43:03.124Z,8.70
2022-09-28T06:44:00.368Z,8.70
2022-09-28T06:45:00.272Z,8.70
2022-09-28T06:46:00.835Z,8.70
2022-09-28T06:47:00.278Z,8.70
2022-09-28T06:48:00.349Z,8.70
2022-09-28T06:49:00.265Z,6.80
2022-09-28T06:50:00.255Z,6.80
2022-09-28T06:51:00.478Z,6.80
2022-09-28T06:52:00.418Z,6.80
2022-09-28T06:53:00.848Z,6.80
2022-09-28T06:54:00.292Z,6.80
2022-09-28T06:55:00.278Z,6.80
2022-09-28T06:56:00.508Z,6.80
2022-09-28T06:57:00.276Z,6.80
2022-09-28T06:58:02.855Z,6.80
2022-09-28T06:59:00.277Z,6.80
2022-09-28T07:00:00.479Z,6.80
2022-09-28T07:01:00.533Z,6.80
2022-09-28T07:02:00.319Z,6.80
2022-09-28T07:03:01.989Z,6.80
2022-09-28T07:04:00.407Z,6.80
2022-09-28T07:05:00.273Z,6.80
2022-09-28T07:06:00.287Z,6.80
2022-09-28T07:07:00.260Z,6.80
2022-09-28T07:08:00.399Z,6.80
2022-09-28T07:09:15.214Z,6.80
2022-09-28T07:10:00.281Z,6.80
2022-09-28T07:11:03.655Z,6.80
2022-09-28T07:12:00.388Z,6.80
2022-09-28T07:13:01.639Z,6.80
2022-09-28T07:14:00.274Z,6.80
2022-09-28T07:15:00.284Z,6.80
2022-09-28T07:16:00.394Z,6.80
2022-09-28T07:17:13.270Z,6.80
2022-09-28T07:18:03.098Z,6.80
2022-09-28T07:19:00.348Z,8.10
2022-09-28T07:20:10.563Z,8.10
2022-09-28T07:21:00.301Z,8.10
2022-09-28T07:22:05.278Z,8.10
2022-09-28T07:23:15.574Z,8.10
2022-09-28T07:24:00.283Z,8.10
2022-09-28T07:25:00.307Z,8.10
2022-09-28T07:26:06.550Z,8.10
2022-09-28T07:27:00.263Z,8.10
2022-09-28T07:28:01.312Z,8.10
2022-09-28T07:29:00.266Z,8.10
2022-09-28T07:30:00.266Z,8.10
2022-09-28T07:31:00.440Z,8.10
2022-09-28T07:32:00.471Z,8.10
2022-09-28T07:33:00.928Z,8.10
2022-09-28T07:34:00.275Z,8.10
2022-09-28T07:35:00.286Z,8.10
2022-09-28T07:36:00.408Z,8.10
2022-09-28T07:37:00.261Z,8.10
2022-09-28T07:38:02.799Z,8.10
2022-09-28T07:39:00.991Z,8.10
2022-09-28T07:40:01.017Z,8.10
2022-09-28T07:41:00.337Z,8.10
2022-09-28T07:42:02.893Z,8.10
2022-09-28T07:43:04.424Z,8.10
2022-09-28T07:44:00.882Z,8.10
2022-09-28T07:45:00.274Z,8.10
2022-09-28T07:46:00.616Z,8.10
2022-09-28T07:47:00.266Z,8.10
2022-09-28T07:48:00.539Z,8.10
2022-09-28T07:49:00.556Z,11.70
2022-09-28T07:50:00.269Z,11.70
2022-09-28T07:51:00.278Z,11.70
2022-09-28T07:52:00.324Z,11.70
2022-09-28T07:53:00.263Z,11.70
2022-09-28T07:54:00.378Z,11.70
2022-09-28T07:55:06.017Z,11.70
2022-09-28T07:56:01.267Z,11.70
2022-09-28T07:57:00.269Z,11.70
2022-09-28T07:58:00.298Z,11.70
2022-09-28T07:59:00.368Z,11.70
2022-09-28T08:00:00.455Z,11.70
2022-09-28T08:01:02.793Z,11.70
2022-09-28T08:02:00.360Z,11.70
2022-09-28T08:03:01.013Z,11.70
2022-09-28T08:04:00.373Z,11.70
2022-09-28T08:05:00.790Z,11.70
2022-09-28T08:06:01.675Z,11.70
2022-09-28T08:07:00.307Z,11.70
2022-09-28T08:08:00.866Z,11.70
2022-09-28T08:09:00.276Z,11.70
2022-09-28T08:10:00.265Z,11.70
2022-09-28T08:11:00.666Z,11.70
2022-09-28T08:12:00.470Z,11.70
2022-09-28T08:13:02.665Z,11.70
2022-09-28T08:14:00.275Z,11.70
2022-09-28T08:15:00.442Z,11.70
2022-09-28T08:16:00.809Z,11.70
2022-09-28T08:17:00.795Z,11.70
2022-09-28T08:18:02.731Z,11.70
2022-09-28T08:19:00.259Z,10.80
2022-09-28T08:20:00.302Z,10.80
2022-09-28T08:21:01.198Z,10.80
2022-09-28T08:22:00.257Z,10.80
2022-09-28T08:23:02.150Z,10.80
2022-09-28T08:24:00.364Z,10.80
2022-09-28T08:25:00.305Z,10.80
2022-09-28T08:26:00.277Z,10.80
2022-09-28T08:27:00.285Z,10.80
2022-09-28T08:28:00.359Z,10.80
2022-09-28T08:29:00.285Z,10.80
2022-09-28T08:30:00.314Z,10.80
2022-09-28T08:31:00.316Z,10.80
2022-09-28T08:32:01.704Z,10.80
2022-09-28T08:33:00.278Z,10.80
2022-09-28T08:34:00.431Z,10.80
2022-09-28T08:35:00.287Z,10.80
2022-09-28T08:36:01.239Z,10.80
2022-09-28T08:37:00.259Z,10.80
2022-09-28T08:38:00.261Z,10.80
2022-09-28T08:39:00.388Z,10.80
2022-09-28T08:40:00.368Z,10.80
2022-09-28T08:41:07.735Z,10.80
2022-09-28T08:42:07.750Z,10.80
2022-09-28T08:43:04.135Z,10.80
2022-09-28T08:44:07.697Z,10.80
2022-09-28T08:45:10.193Z,10.80
2022-09-28T08:46:00.542Z,10.80
2022-09-28T08:47:02.815Z,10.80
2022-09-28T08:48:10.181Z,10.80
2022-09-28T08:49:24.280Z,10.90
2022-09-28T08:50:01.459Z,10.90
2022-09-28T08:51:02.927Z,10.90
2022-09-28T08:52:00.268Z,10.90
2022-09-28T08:53:06.371Z,10.90
2022-09-28T08:54:01.287Z,10.90
2022-09-28T08:55:01.289Z,10.90
2022-09-28T08:56:03.082Z,10.90
2022-09-28T08:57:10.175Z,10.90
2022-09-28T08:58:03.964Z,10.90
2022-09-28T08:59:03.682Z,10.90
2022-09-28T09:00:01.516Z,10.90
2022-09-28T09:01:01.766Z,10.90
2022-09-28T09:02:02.408Z,10.90
2022-09-28T09:03:04.250Z,10.90
2022-09-28T09:04:01.983Z,10.90
2022-09-28T09:05:02.583Z,10.90
2022-09-28T09:06:10.187Z,10.90
2022-09-28T09:07:10.176Z,10.90
2022-09-28T09:08:06.246Z,10.90
2022-09-28T09:09:10.193Z,10.90
2022-09-28T09:10:10.196Z,10.90
2022-09-28T09:11:09.461Z,10.90
2022-09-28T09:12:10.182Z,10.90
2022-09-28T09:13:01.287Z,10.90
2022-09-28T09:14:10.355Z,10.90
2022-09-28T09:15:10.180Z,10.90
2022-09-28T09:16:10.191Z,10.90
2022-09-28T09:17:00.964Z,10.90
2022-09-28T09:18:07.312Z,10.90
2022-09-28T09:19:03.583Z,7.10
2022-09-28T09:20:10.188Z,7.10
2022-09-28T09:21:10.168Z,7.10
2022-09-28T09:22:07.111Z,7.10
2022-09-28T09:23:05.056Z,7.10
2022-09-28T09:24:09.800Z,7.10
2022-09-28T09:25:07.787Z,7.10
2022-09-28T09:26:10.303Z,7.10
2022-09-28T09:27:01.311Z,7.10
2022-09-28T09:28:10.171Z,7.10
2022-09-28T09:29:10.168Z,7.10
2022-09-28T09:30:05.700Z,7.10
2022-09-28T09:31:10.253Z,7.10
2022-09-28T09:32:08.173Z,7.10
2022-09-28T09:33:09.994Z,7.10
2022-09-28T09:34:07.435Z,7.10
2022-09-28T09:35:08.260Z,7.10
2022-09-28T09:36:10.165Z,7.10
2022-09-28T09:37:03.580Z,7.10
2022-09-28T09:38:10.190Z,7.10
2022-09-28T09:39:10.175Z,7.10
2022-09-28T09:40:06.988Z,7.10
2022-09-28T09:41:03.711Z,7.10
2022-09-28T09:42:01.292Z,7.10
2022-09-28T09:43:08.394Z,7.10
2022-09-28T09:44:09.926Z,7.10
2022-09-28T09:45:06.409Z,7.10
2022-09-28T09:46:10.356Z,7.10
2022-09-28T09:47:10.172Z,7.10
2022-09-28T09:48:02.670Z,7.10
2022-09-28T09:49:04.587Z,7.30
2022-09-28T09:50:10.273Z,7.30
2022-09-28T09:51:04.304Z,7.30
2022-09-28T09:52:05.122Z,7.30
2022-09-28T09:53:10.195Z,7.30
2022-09-28T09:54:03.710Z,7.30
2022-09-28T09:55:10.175Z,7.30
2022-09-28T09:56:04.915Z,7.30
2022-09-28T09:57:02.032Z,7.30
2022-09-28T09:58:05.585Z,7.30
2022-09-28T09:59:04.587Z,7.30
2022-09-28T10:00:01.694Z,7.30
2022-09-28T10:01:07.232Z,7.30
2022-09-28T10:02:01.909Z,7.30
2022-09-28T10:03:00.705Z,7.30
2022-09-28T10:04:01.624Z,7.30
2022-09-28T10:05:05.630Z,7.30
2022-09-28T10:06:04.633Z,7.30
2022-09-28T10:07:02.561Z,7.30
2022-09-28T10:08:10.173Z,7.30
2022-09-28T10:09:03.671Z,7.30
2022-09-28T10:10:01.306Z,7.30
2022-09-28T10:11:07.236Z,7.30
2022-09-28T10:12:00.464Z,7.30
2022-09-28T10:13:00.556Z,7.30
2022-09-28T10:14:00.514Z,7.30
2022-09-28T10:15:01.734Z,7.30
2022-09-28T10:16:00.506Z,7.30
2022-09-28T10:17:01.354Z,7.30
2022-09-28T10:18:02.616Z,7.30
2022-09-28T10:19:00.472Z,7.60
2022-09-28T10:20:00.395Z,7.60
2022-09-28T10:21:00.304Z,7.60
2022-09-28T10:22:03.776Z,7.60
2022-09-28T10:23:01.795Z,7.60
2022-09-28T10:24:00.397Z,7.60
2022-09-28T10:25:00.440Z,7.60
2022-09-28T10:26:02.944Z,7.60
2022-09-28T10:27:04.844Z,7.60
2022-09-28T10:28:02.009Z,7.60
2022-09-28T10:29:01.298Z,7.60
2022-09-28T10:30:10.181Z,7.60
2022-09-28T10:31:10.197Z,7.60
2022-09-28T10:32:00.409Z,7.60
2022-09-28T10:33:00.293Z,7.60
2022-09-28T10:34:00.452Z,7.60
2022-09-28T10:35:10.202Z,7.60
2022-09-28T10:36:00.840Z,7.60
2022-09-28T10:37:02.087Z,7.60
2022-09-28T10:38:04.579Z,7.60
2022-09-28T10:39:00.455Z,7.60
2022-09-28T10:40:00.307Z,7.60
2022-09-28T10:41:07.712Z,7.60
2022-09-28T10:42:01.295Z,7.60
2022-09-28T10:43:01.518Z,7.60
2022-09-28T10:44:01.718Z,7.60
2022-09-28T10:45:03.348Z,7.60
2022-09-28T10:46:00.327Z,7.60
2022-09-28T10:47:01.817Z,7.60
2022-09-28T10:48:01.029Z,7.60
2022-09-28T10:49:00.257Z,5.30
2022-09-28T10:50:00.350Z,5.30
2022-09-28T10:51:07.592Z,5.30
2022-09-28T10:52:00.465Z,5.30
2022-09-28T10:53:09.672Z,5.30
2022-09-28T10:54:01.358Z,5.30
2022-09-28T10:55:00.706Z,5.30
2022-09-28T10:56:02.111Z,5.30
2022-09-28T10:57:00.302Z,5.30
2022-09-28T10:58:10.197Z,5.30
2022-09-28T10:59:00.363Z,5.30
2022-09-28T11:00:00.500Z,5.30
2022-09-28T11:01:02.442Z,5.30
2022-09-28T11:02:10.214Z,5.30
2022-09-28T11:03:01.117Z,5.30
2022-09-28T11:04:01.465Z,5.30
2022-09-28T11:05:02.146Z,5.30
2022-09-28T11:06:06.129Z,5.30
2022-09-28T11:08:03.775Z,5.30
2022-09-28T11:09:03.136Z,5.30
2022-09-28T11:10:00.816Z,5.30
2022-09-28T11:11:01.592Z,5.30
2022-09-28T11:12:02.092Z,5.30
2022-09-28T11:13:00.465Z,5.30
2022-09-28T11:14:00.813Z,5.30
2022-09-28T11:15:02.559Z,5.30
2022-09-28T11:16:00.397Z,5.30
2022-09-28T11:17:10.191Z,5.30
2022-09-28T11:18:10.173Z,5.30
2022-09-28T11:19:04.933Z,4.20
2022-09-28T11:20:10.185Z,4.20
2022-09-28T11:21:12.733Z,4.20
2022-09-28T11:22:00.281Z,4.20
2022-09-28T11:23:10.253Z,4.20
2022-09-28T11:24:05.258Z,4.20
2022-09-28T11:25:10.263Z,4.20
2022-09-28T11:26:05.023Z,4.20
2022-09-28T11:27:00.428Z,4.20
2022-09-28T11:28:01.491Z,4.20
2022-09-28T11:29:00.277Z,4.20
2022-09-28T11:30:00.388Z,4.20
2022-09-28T11:31:00.727Z,4.20
2022-09-28T11:32:01.168Z,4.20
2022-09-28T11:33:03.314Z,4.20
2022-09-28T11:34:02.819Z,4.20
2022-09-28T11:35:00.639Z,4.20
2022-09-28T11:36:00.253Z,4.20
2022-09-28T11:37:10.190Z,4.20
2022-09-28T11:38:10.178Z,4.20
2022-09-28T11:39:10.243Z,4.20
2022-09-28T11:40:10.233Z,4.20
2022-09-28T11:41:08.151Z,4.20
2022-09-28T11:42:01.312Z,4.20
2022-09-28T11:43:11.437Z,4.20
2022-09-28T11:44:03.544Z,4.20
2022-09-28T11:45:10.207Z,4.20
2022-09-28T11:46:10.260Z,4.20
2022-09-28T11:47:00.262Z,4.20
2022-09-28T11:48:02.622Z,4.20
2022-09-28T11:49:05.587Z,4.60
2022-09-28T11:50:03.543Z,4.60
2022-09-28T11:51:03.110Z,4.60
2022-09-28T11:52:04.924Z,4.60
2022-09-28T11:53:08.160Z,4.60
2022-09-28T11:54:08.621Z,4.60
2022-09-28T11:55:04.102Z,4.60
2022-09-28T11:56:10.309Z,4.60
2022-09-28T11:57:02.547Z,4.60
2022-09-28T11:58:09.281Z,4.60
2022-09-28T11:59:08.590Z,4.60
2022-09-28T12:00:03.281Z,4.60
2022-09-28T12:01:04.192Z,4.60
2022-09-28T12:02:09.415Z,4.60
2022-09-28T12:03:05.844Z,4.60
2022-09-28T12:04:09.782Z,4.60
2022-09-28T12:05:07.522Z,4.60
2022-09-28T12:06:04.021Z,4.60
2022-09-28T12:07:10.248Z,4.60
2022-09-28T12:08:03.432Z,4.60
2022-09-28T12:09:05.518Z,4.60
2022-09-28T12:10:10.370Z,4.60
2022-09-28T12:11:04.278Z,4.60
2022-09-28T12:12:02.885Z,4.60
2022-09-28T12:13:02.755Z,4.60
2022-09-28T12:14:01.586Z,4.60
2022-09-28T12:15:03.833Z,4.60
2022-09-28T12:16:32.649Z,4.60
2022-09-28T12:17:07.450Z,4.60
2022-09-28T12:18:06.289Z,4.60
2022-09-28T12:19:03.536Z,1.80
2022-09-28T12:20:02.388Z,1.80
2022-09-28T12:21:07.886Z,1.80
2022-09-28T12:22:03.986Z,1.80
2022-09-28T12:23:00.276Z,1.80
2022-09-28T12:24:10.378Z,1.80
2022-09-28T12:25:01.996Z,1.80
2022-09-28T12:26:03.485Z,1.80
2022-09-28T12:27:04.080Z,1.80
2022-09-28T12:28:02.192Z,1.80
2022-09-28T12:29:03.621Z,1.80
2022-09-28T12:30:03.630Z,1.80
2022-09-28T12:31:08.306Z,1.80
2022-09-28T12:32:10.294Z,1.80
2022-09-28T12:33:03.920Z,1.80
2022-09-28T12:34:01.010Z,1.80
2022-09-28T12:35:00.876Z,1.80
2022-09-28T12:36:03.536Z,1.80
2022-09-28T12:37:10.318Z,1.80
2022-09-28T12:38:10.280Z,1.80
2022-09-28T12:39:23.978Z,1.80
2022-09-28T12:40:10.329Z,1.80
2022-09-28T12:41:10.309Z,1.80
2022-09-28T12:42:10.167Z,1.80
2022-09-28T12:43:08.452Z,1.80
2022-09-28T12:44:03.544Z,1.80
2022-09-28T12:45:01.290Z,1.80
2022-09-28T12:46:11.518Z,1.80
2022-09-28T12:47:10.381Z,1.80
2022-09-28T12:48:00.260Z,1.80
2022-09-28T12:50:33.267Z,2.70
2022-09-28T12:51:00.497Z,2.70
2022-09-28T12:51:02.306Z,2.70
2022-09-28T12:52:10.288Z,2.70
2022-09-28T12:53:10.323Z,2.70
2022-09-28T12:54:06.029Z,2.70
2022-09-28T12:55:01.432Z,2.70
2022-09-28T12:56:00.269Z,2.70
2022-09-28T12:57:03.551Z,2.70
2022-09-28T12:58:01.297Z,2.70
2022-09-28T12:59:10.478Z,2.70
2022-09-28T13:00:05.222Z,2.70
2022-09-28T13:01:10.401Z,2.70
2022-09-28T13:02:10.344Z,2.70
2022-09-28T13:03:09.845Z,2.70
2022-09-28T13:04:03.627Z,2.70
2022-09-28T13:05:01.291Z,2.70
2022-09-28T13:06:10.332Z,2.70
2022-09-28T13:07:10.303Z,2.70
2022-09-28T13:08:00.249Z,2.70
2022-09-28T13:09:10.291Z,2.70
2022-09-28T13:10:10.354Z,2.70
2022-09-28T13:11:10.284Z,2.70
2022-09-28T13:12:04.012Z,2.70
2022-09-28T13:13:10.303Z,2.70
2022-09-28T13:14:10.320Z,2.70
2022-09-28T13:15:10.351Z,2.70
2022-09-28T13:16:10.428Z,2.70